Contacto @
curve curve curve curve

METEOROLOGÍA AERONÁUTICA

INFORMACIÓN METEOROLÓGICA

En este apartado aparece la información meteorológica aeronáutica que es utilizada en las prácticas de los alumnos de la Escuela de Pilotos de nuestro centro durante su formación, por lo que puede no ser actual y debe ser usada por su propia cuenta y riesgo. AERBRAVA no se hace responsable de su uso.

TIEMPO ACTUAL

Satélite meteorológico sat24.com

Servei Meteorològic de Catalunya
LEGE 261930Z 03005KT 9999 FEW005 BKN040 09/06 Q1011
LEGE 261900Z 03005KT 360V060 9999 FEW005 BKN040 09/06 Q1010
LEGE 261830Z 03003KT 350V060 9999 FEW005 BKN040 10/07 Q1010
LEGE 261800Z 05006KT 020V080 9999 FEW005 BKN040 10/07 Q1010
TAF LEGE 261700Z 2618/2718 02007KT 9999 BKN030 TX15/2713Z TN06/2706Z
PROB40
TEMPO 2700/2712 3000 RA BKN014
National Weather service
Matrícula abierta Piloto RPAs - Drones - UAVs.
Miércoles
26 Abril de 2017
Página cargada a las 19:39 UTC
Orto: 04:54 UTC
Ocaso: 18:39 UTC

2017/04/26 19:30 LEGE 261930Z 03005KT 9999 FEW005 BKN040 09/06 Q1011


2017/04/26 18:27 TAF LEGE 261700Z 2618/2718 02007KT 9999 BKN030 TX15/2713Z TN06/2706Z PROB40 TEMPO 2700/2712 3000 RA BKN014
Sólo se muestran los aviones equipados con el sistema ADS-B en directo desde FlightRadar24
Aerbrava en el facebook Aerbrava en el youtube Aerbrava en el twitter Google+
Instagram tumblr flikr
logo inicio Nosotros | Mapa del sitio | Oportunidades profesionales | Privacidad | Contacte con nosotros | © 2017 AERBRAVA, SCP